Time;durP1;ratioP1;P1;durP2;ratioP2;P2;SDS_P1;SDS_P2;PMS_P1;PMS_P2;Temp;Humidity;BMP_temperature;BMP_pressure;BME280_temperature;BME280_humidity;BME280_pressure;Samples;Min_cycle;Max_cycle;Signal;HPM_P1;HPM_P2
2023/08/15 00:00:20;;;;;;;8.00;6.60;;;;;;;23.48;59.95;100414.50;105715;1257;73833;-83
2023/08/15 00:02:48;;;;;;;8.10;6.70;;;;;;;23.44;60.09;100410.06;105835;1261;68817;-83
2023/08/15 00:05:16;;;;;;;10.10;6.60;;;;;;;23.40;60.16;100412.48;105628;1261;72671;-86
2023/08/15 00:08:02;;;;;;;10.20;6.90;;;;;;;23.34;60.39;100415.08;105660;1257;60853;-85
2023/08/15 00:10:29;;;;;;;8.80;6.40;;;;;;;23.31;60.48;100416.18;105998;1263;61967;-85
2023/08/15 00:12:57;;;;;;;8.90;6.50;;;;;;;23.27;60.68;100412.85;108821;1257;72616;-84
2023/08/15 00:15:25;;;;;;;8.00;6.90;;;;;;;23.26;60.78;100416.55;107190;1258;71462;-83
2023/08/15 00:17:52;;;;;;;11.20;6.70;;;;;;;23.24;60.84;100420.60;106473;1257;72737;-84
2023/08/15 00:20:19;;;;;;;7.30;6.40;;;;;;;23.22;60.97;100423.63;106165;1260;60431;-85
2023/08/15 00:22:47;;;;;;;9.10;6.20;;;;;;;23.20;61.02;100424.71;106307;1262;61058;-83
2023/08/15 00:25:15;;;;;;;10.00;6.90;;;;;;;23.17;61.25;100427.42;105960;1263;72620;-83
2023/08/15 00:27:42;;;;;;;13.40;7.20;;;;;;;23.15;61.35;100423.73;106024;1258;69117;-78
2023/08/15 00:30:10;;;;;;;12.20;7.40;;;;;;;23.12;61.39;100421.98;105800;1257;72710;-79
2023/08/15 00:32:37;;;;;;;12.00;6.40;;;;;;;23.11;61.42;100427.44;107222;1257;60451;-81
2023/08/15 00:35:05;;;;;;;9.00;7.50;;;;;;;23.10;61.55;100432.39;108598;1257;58838;-83
2023/08/15 00:37:33;;;;;;;8.60;6.40;;;;;;;23.08;61.66;100433.71;108474;1257;72570;-81
2023/08/15 00:40:01;;;;;;;8.90;7.20;;;;;;;23.07;61.73;100430.85;106603;1258;69039;-83
2023/08/15 00:42:29;;;;;;;15.30;6.60;;;;;;;23.06;61.91;100433.91;105848;1257;72728;-80
2023/08/15 00:44:57;;;;;;;13.50;6.70;;;;;;;23.03;61.90;100433.83;105723;1263;60523;-79
2023/08/15 00:47:25;;;;;;;8.10;6.60;;;;;;;23.00;62.12;100434.34;105581;1263;60489;-80
2023/08/15 00:49:52;;;;;;;8.60;7.00;;;;;;;22.98;62.09;100432.94;105499;1257;73968;-78
2023/08/15 00:52:20;;;;;;;8.50;6.80;;;;;;;22.95;62.17;100435.27;106199;1263;69428;-76
2023/08/15 00:54:47;;;;;;;8.80;6.50;;;;;;;22.94;62.10;100434.23;106841;1257;72860;-79
2023/08/15 00:57:15;;;;;;;7.70;6.90;;;;;;;22.93;62.16;100434.01;105645;1260;60610;-75
2023/08/15 00:59:43;;;;;;;9.30;7.10;;;;;;;22.92;62.29;100433.27;105437;1260;60633;-81
2023/08/15 01:02:11;;;;;;;8.30;6.30;;;;;;;22.90;62.38;100437.14;105351;1260;72589;-81
2023/08/15 01:04:39;;;;;;;14.40;7.40;;;;;;;22.88;62.39;100434.70;105424;1262;69045;-80
2023/08/15 01:07:09;;;;;;;7.70;6.80;;;;;;;22.87;62.35;100437.48;105521;1257;72474;-80
2023/08/15 01:09:37;;;;;;;8.20;6.80;;;;;;;22.84;62.66;100433.85;105612;1257;60533;-80
2023/08/15 01:12:18;;;;;;;8.00;6.90;;;;;;;22.83;62.63;100434.30;105380;1262;218002;-79
2023/08/15 01:16:21;;;;;;;11.40;7.70;;;;;;;22.80;62.81;100428.82;103378;1288;600116;-79
2023/08/15 01:18:54;;;;;;;8.30;6.70;;;;;;;22.75;62.94;100423.91;105445;1258;59327;-81
2023/08/15 01:21:25;;;;;;;12.70;7.40;;;;;;;22.72;62.99;100422.38;105532;1263;59337;-81
2023/08/15 01:23:52;;;;;;;10.70;7.10;;;;;;;22.69;63.15;100419.98;105492;1265;74173;-79
2023/08/15 01:26:20;;;;;;;9.00;7.10;;;;;;;22.66;63.32;100423.47;105561;1257;72101;-80
2023/08/15 01:28:47;;;;;;;9.90;7.30;;;;;;;22.63;63.23;100425.66;105728;1260;160872;-79
2023/08/15 01:31:18;;;;;;;13.90;7.30;;;;;;;22.62;63.31;100426.98;106414;1254;58824;-78
2023/08/15 01:33:56;;;;;;;17.60;7.70;;;;;;;22.62;63.49;100421.73;106381;1260;59187;-78
2023/08/15 01:36:27;;;;;;;8.20;6.70;;;;;;;22.63;63.49;100420.51;105898;1260;70696;-78
2023/08/15 01:38:56;;;;;;;8.70;6.70;;;;;;;22.64;63.52;100419.61;105791;1260;69204;-79
2023/08/15 01:41:24;;;;;;;9.60;7.00;;;;;;;22.65;63.46;100422.18;105810;1254;71670;-77
2023/08/15 01:43:52;;;;;;;7.30;6.40;;;;;;;22.65;63.49;100418.17;105790;1260;60141;-80
2023/08/15 01:46:19;;;;;;;11.20;7.10;;;;;;;22.65;63.52;100415.44;106201;1257;60024;-79
2023/08/15 01:48:47;;;;;;;8.00;7.20;;;;;;;22.66;63.44;100417.09;107964;1254;71903;-79
2023/08/15 01:51:14;;;;;;;8.50;6.70;;;;;;;22.67;63.47;100417.74;108000;1254;70302;-78
2023/08/15 01:53:41;;;;;;;8.50;7.00;;;;;;;22.66;63.50;100416.02;107066;1254;72582;-79
2023/08/15 01:56:09;;;;;;;11.40;7.20;;;;;;;22.67;63.50;100415.95;105981;1256;60047;-77
2023/08/15 01:58:36;;;;;;;11.70;7.20;;;;;;;22.67;63.49;100418.13;105795;1260;62224;-78
2023/08/15 02:01:04;;;;;;;10.30;7.20;;;;;;;22.65;63.49;100424.43;105820;1254;72300;-80
2023/08/15 02:03:31;;;;;;;9.40;7.20;;;;;;;22.65;63.68;100426.19;105873;1257;70448;-77
2023/08/15 02:05:58;;;;;;;12.20;7.00;;;;;;;22.63;63.80;100424.59;106039;1262;71539;-78
2023/08/15 02:08:26;;;;;;;12.00;7.60;;;;;;;22.61;63.92;100426.70;106095;1254;59434;-78
2023/08/15 02:10:54;;;;;;;8.40;6.90;;;;;;;22.58;64.08;100426.54;106848;1262;60002;-78
2023/08/15 02:13:21;;;;;;;8.80;7.00;;;;;;;22.55;64.33;100426.27;107331;1255;71692;-79
2023/08/15 02:15:50;;;;;;;8.10;7.10;;;;;;;22.53;64.45;100426.61;106279;1254;70137;-78
2023/08/15 02:18:18;;;;;;;9.50;7.20;;;;;;;22.50;64.57;100422.58;106932;1258;71368;-75
2023/08/15 02:20:45;;;;;;;10.70;7.00;;;;;;;22.47;64.63;100423.35;105774;1260;60779;-77
2023/08/15 02:23:12;;;;;;;8.60;6.60;;;;;;;22.45;64.66;100422.44;105891;1256;59685;-80
2023/08/15 02:25:42;;;;;;;9.10;6.80;;;;;;;22.43;64.59;100423.30;106090;1254;73002;-79
2023/08/15 02:28:11;;;;;;;12.30;7.30;;;;;;;22.41;64.71;100424.91;108044;1254;70729;-79
2023/08/15 02:30:38;;;;;;;8.20;7.30;;;;;;;22.40;64.60;100423.91;107141;1256;71928;-78
2023/08/15 02:33:06;;;;;;;12.30;7.50;;;;;;;22.39;64.79;100426.02;105773;1254;60157;-78
2023/08/15 02:35:34;;;;;;;10.30;6.80;;;;;;;22.37;64.82;100427.21;105770;1260;59588;-80
2023/08/15 02:38:02;;;;;;;9.90;7.30;;;;;;;22.37;64.84;100429.46;105677;1262;73980;-80
2023/08/15 02:40:31;;;;;;;8.50;7.10;;;;;;;22.36;64.85;100426.73;105721;1260;72698;-78
2023/08/15 02:42:58;;;;;;;9.40;7.80;;;;;;;22.34;64.85;100427.99;105747;1261;71930;-80
2023/08/15 02:45:26;;;;;;;10.30;6.50;;;;;;;22.32;64.84;100430.05;105561;1261;59615;-79
2023/08/15 02:47:53;;;;;;;9.00;7.00;;;;;;;22.31;64.93;100436.23;105702;1254;60046;-79
2023/08/15 02:50:20;;;;;;;13.90;7.50;;;;;;;22.29;65.11;100438.67;105614;1254;73125;-79
2023/08/15 02:52:48;;;;;;;8.00;6.70;;;;;;;22.28;65.40;100443.58;105894;1254;69724;-78
2023/08/15 02:55:15;;;;;;;11.00;7.00;;;;;;;22.27;65.75;100447.16;106838;1258;71357;-79
2023/08/15 02:57:43;;;;;;;11.10;7.80;;;;;;;22.32;66.19;100450.02;106330;1261;61900;-76
2023/08/15 03:00:11;;;;;;;10.40;7.30;;;;;;;22.34;66.47;100453.39;106769;1256;59551;-82
2023/08/15 03:02:40;;;;;;;13.80;6.80;;;;;;;22.29;66.79;100457.80;108937;1260;71810;-81
2023/08/15 03:05:08;;;;;;;7.30;6.50;;;;;;;22.26;66.97;100458.88;108345;1257;68746;-78
2023/08/15 03:07:35;;;;;;;12.30;10.80;;;;;;;22.21;67.10;100462.02;106822;1257;71460;-77
2023/08/15 03:10:04;;;;;;;14.70;12.00;;;;;;;22.16;67.38;100460.70;106075;1253;59698;-78
2023/08/15 03:12:31;;;;;;;9.80;8.00;;;;;;;22.11;67.53;100460.18;106106;1254;61942;-78
2023/08/15 03:14:59;;;;;;;10.80;7.70;;;;;;;22.09;67.80;100460.05;105929;1254;72313;-79
2023/08/15 03:17:27;;;;;;;10.80;7.90;;;;;;;22.06;67.73;100458.84;105967;1251;68860;-79
2023/08/15 03:19:54;;;;;;;15.80;11.00;;;;;;;22.02;67.73;100461.14;105907;1257;72893;-79
2023/08/15 03:22:22;;;;;;;16.20;9.20;;;;;;;21.95;67.76;100462.30;106033;1251;59679;-78
2023/08/15 03:24:50;;;;;;;11.30;7.80;;;;;;;21.86;67.99;100465.34;105975;1254;60074;-79
2023/08/15 03:27:17;;;;;;;11.60;6.60;;;;;;;21.80;68.18;100468.95;105973;1257;72018;-79
2023/08/15 03:29:46;;;;;;;10.40;7.10;;;;;;;21.82;68.18;100466.46;105964;1257;69249;-79
2023/08/15 03:32:13;;;;;;;17.40;7.80;;;;;;;21.82;68.16;100466.27;106089;1254;72467;-78
2023/08/15 03:34:41;;;;;;;11.50;7.80;;;;;;;21.79;68.36;100466.91;108076;1254;59438;-78
2023/08/15 03:37:09;;;;;;;10.30;7.90;;;;;;;21.77;68.49;100473.14;107281;1251;59714;-78
2023/08/15 03:39:36;;;;;;;11.10;8.20;;;;;;;21.77;68.52;100475.26;106182;1251;70738;-77
2023/08/15 03:42:04;;;;;;;13.50;7.60;;;;;;;21.77;68.57;100477.27;106037;1252;68833;-78
2023/08/15 03:44:31;;;;;;;12.80;8.60;;;;;;;21.78;68.62;100476.95;105890;1251;72690;-78
2023/08/15 03:46:59;;;;;;;14.20;8.90;;;;;;;21.80;68.70;100475.98;105969;1251;59754;-77
2023/08/15 03:49:26;;;;;;;9.00;7.40;;;;;;;21.82;68.88;100481.13;106095;1251;59777;-79
2023/08/15 03:51:53;;;;;;;9.40;7.30;;;;;;;21.85;68.99;100480.89;106210;1251;71766;-79
2023/08/15 03:54:21;;;;;;;13.30;7.30;;;;;;;21.88;68.98;100479.80;106078;1254;70275;-80
2023/08/15 03:56:49;;;;;;;10.60;6.90;;;;;;;22.01;68.97;100482.48;106215;1254;72584;-76
2023/08/15 03:59:16;;;;;;;12.10;7.60;;;;;;;22.13;68.76;100483.35;106138;1256;59704;-78
2023/08/15 04:01:43;;;;;;;11.70;7.40;;;;;;;22.18;68.64;100483.54;106206;1251;59791;-79
2023/08/15 04:04:11;;;;;;;18.90;13.80;;;;;;;22.24;68.46;100479.82;106246;1257;75061;-79
2023/08/15 04:06:38;;;;;;;12.90;8.60;;;;;;;22.32;68.36;100475.23;106201;1254;68869;-78
2023/08/15 04:09:06;;;;;;;9.20;7.10;;;;;;;22.47;68.02;100479.70;106541;1250;71993;-79
2023/08/15 04:11:33;;;;;;;8.90;6.90;;;;;;;22.60;67.91;100477.91;107081;1257;59783;-79
2023/08/15 04:14:01;;;;;;;9.10;7.40;;;;;;;22.70;67.59;100478.23;106880;1251;62196;-78
2023/08/15 04:16:28;;;;;;;11.10;7.00;;;;;;;22.83;67.51;100479.16;108505;1251;71797;-77
2023/08/15 04:18:56;;;;;;;10.10;7.30;;;;;;;22.99;67.10;100473.51;108416;1251;69133;-76
2023/08/15 04:21:23;;;;;;;10.90;7.80;;;;;;;23.12;66.59;100472.38;107476;1254;71822;-79
2023/08/15 04:23:51;;;;;;;10.00;7.70;;;;;;;23.19;66.25;100472.56;106287;1252;59928;-80
2023/08/15 04:26:18;;;;;;;8.10;7.30;;;;;;;23.22;66.24;100475.13;106496;1251;62469;-80
2023/08/15 04:28:46;;;;;;;12.50;7.70;;;;;;;23.24;66.22;100480.05;106696;1251;73078;-80
2023/08/15 04:31:14;;;;;;;10.80;8.10;;;;;;;23.27;66.28;100482.77;106723;1251;70340;-79
2023/08/15 04:33:41;;;;;;;12.40;7.70;;;;;;;23.29;66.34;100484.34;106170;1252;72738;-77
2023/08/15 04:36:09;;;;;;;13.80;7.60;;;;;;;23.32;66.16;100485.35;106406;1257;59812;-80
2023/08/15 04:38:38;;;;;;;13.10;8.00;;;;;;;23.37;66.21;100486.00;106171;1257;59551;-79
2023/08/15 04:41:06;;;;;;;11.90;7.70;;;;;;;23.46;66.05;100485.02;106858;1251;72395;-80
2023/08/15 04:43:34;;;;;;;13.00;7.30;;;;;;;23.53;65.67;100484.60;106406;1257;68710;-78
2023/08/15 04:46:01;;;;;;;8.70;7.80;;;;;;;23.59;65.46;100484.89;106176;1252;72591;-80
2023/08/15 04:48:29;;;;;;;11.70;7.90;;;;;;;23.64;65.49;100484.84;106093;1251;60603;-80
2023/08/15 04:50:56;;;;;;;14.80;7.80;;;;;;;23.68;65.42;100483.30;106314;1257;61026;-75
2023/08/15 04:53:24;;;;;;;11.90;7.90;;;;;;;23.74;65.36;100483.56;106919;1251;72970;-79
2023/08/15 04:55:51;;;;;;;13.40;8.30;;;;;;;23.85;65.01;100484.13;108068;1251;68965;-78
2023/08/15 04:58:19;;;;;;;14.60;8.00;;;;;;;23.98;64.78;100488.48;107450;1257;71189;-80
2023/08/15 05:00:47;;;;;;;15.00;8.40;;;;;;;24.09;64.53;100491.70;106913;1251;59730;-78
2023/08/15 05:03:14;;;;;;;9.40;8.10;;;;;;;24.18;64.46;100492.72;106265;1251;60046;-80
2023/08/15 05:05:42;;;;;;;9.80;8.20;;;;;;;24.27;64.32;100491.95;106088;1251;73101;-79
2023/08/15 05:08:12;;;;;;;11.60;7.80;;;;;;;24.35;64.24;100490.70;105985;1251;70171;-80
2023/08/15 05:10:39;;;;;;;9.10;8.20;;;;;;;24.41;64.22;100492.13;105908;1257;72505;-80
2023/08/15 05:13:09;;;;;;;12.90;7.40;;;;;;;24.45;64.10;100492.66;106037;1250;60136;-81
2023/08/15 05:15:36;;;;;;;13.00;7.40;;;;;;;24.50;63.87;100489.60;106225;1253;59598;-79
2023/08/15 05:18:04;;;;;;;13.10;8.00;;;;;;;24.56;63.95;100490.23;106182;1250;72954;-79
2023/08/15 05:20:34;;;;;;;8.40;7.50;;;;;;;24.64;63.99;100489.83;106229;1257;68711;-79
2023/08/15 05:23:03;;;;;;;8.60;7.70;;;;;;;24.72;63.94;100488.34;106019;1251;71761;-79
2023/08/15 05:25:31;;;;;;;9.90;7.10;;;;;;;24.82;63.92;100486.36;106260;1251;62475;-78
2023/08/15 05:28:05;;;;;;;11.70;8.80;;;;;;;24.91;63.57;100491.52;107223;1251;60489;-76
2023/08/15 05:30:33;;;;;;;8.50;7.50;;;;;;;25.03;63.50;100491.61;108452;1250;72793;-76
2023/08/15 05:33:00;;;;;;;11.10;8.00;;;;;;;25.14;62.94;100490.45;107309;1251;68301;-77
2023/08/15 05:35:28;;;;;;;10.30;7.20;;;;;;;25.24;62.80;100487.21;107269;1254;72636;-80
2023/08/15 05:37:55;;;;;;;9.60;7.00;;;;;;;25.33;62.20;100485.24;107103;1251;60771;-80
2023/08/15 05:40:23;;;;;;;8.60;6.60;;;;;;;25.43;61.63;100486.09;106417;1256;60558;-80
2023/08/15 05:42:50;;;;;;;9.10;7.10;;;;;;;25.54;61.09;100484.68;106584;1251;73845;-77
2023/08/15 05:45:18;;;;;;;11.20;7.00;;;;;;;25.66;60.65;100485.14;107591;1257;68843;-81
2023/08/15 05:47:45;;;;;;;7.70;6.30;;;;;;;25.80;60.38;100485.00;108636;1251;72365;-78
2023/08/15 05:50:13;;;;;;;9.00;7.00;;;;;;;25.92;60.07;100486.16;108399;1251;60428;-78
2023/08/15 05:52:40;;;;;;;8.10;6.80;;;;;;;26.05;60.01;100489.11;107557;1251;60934;-77
2023/08/15 05:55:08;;;;;;;7.00;5.90;;;;;;;26.20;60.14;100490.23;106684;1251;73817;-79
2023/08/15 05:57:35;;;;;;;9.40;6.60;;;;;;;26.33;60.04;100491.35;106647;1251;69040;-77
2023/08/15 06:00:05;;;;;;;7.30;6.30;;;;;;;26.46;60.05;100492.05;106201;1253;72399;-79
2023/08/15 06:02:39;;;;;;;7.60;6.80;;;;;;;26.59;59.99;100493.95;106401;1253;60514;-77
2023/08/15 06:05:07;;;;;;;9.60;7.40;;;;;;;26.72;59.65;100491.98;106414;1251;60367;-79
2023/08/15 06:07:34;;;;;;;7.90;6.70;;;;;;;26.84;59.04;100494.66;106267;1251;73063;-78
2023/08/15 06:10:02;;;;;;;7.10;6.50;;;;;;;26.94;58.73;100495.56;106216;1255;68982;-79
2023/08/15 06:12:29;;;;;;;8.70;6.50;;;;;;;27.03;58.61;100492.80;106139;1255;71036;-78
2023/08/15 06:14:56;;;;;;;10.80;6.60;;;;;;;27.11;58.10;100492.94;107417;1254;60447;-78
2023/08/15 06:17:24;;;;;;;7.50;6.30;;;;;;;27.20;57.74;100494.32;107376;1251;60257;-79
2023/08/15 06:19:53;;;;;;;8.90;6.50;;;;;;;27.29;57.29;100495.55;106250;1257;72738;-79
2023/08/15 06:22:21;;;;;;;12.40;7.80;;;;;;;27.38;57.45;100501.90;106278;1256;69239;-78
2023/08/15 06:24:48;;;;;;;7.90;5.70;;;;;;;27.47;57.37;100493.23;106042;1252;72783;-77
2023/08/15 06:27:15;;;;;;;9.80;6.90;;;;;;;27.56;57.22;100496.02;106112;1257;60408;-77
2023/08/15 06:29:43;;;;;;;12.20;6.20;;;;;;;27.64;56.72;100491.00;106227;1250;60501;-77
2023/08/15 06:32:24;;;;;;;7.60;6.90;;;;;;;27.72;56.21;100491.88;106294;1251;73245;-78
2023/08/15 06:34:51;;;;;;;8.60;6.80;;;;;;;27.79;55.82;100489.83;106235;1251;68619;-80
2023/08/15 06:37:19;;;;;;;8.70;7.10;;;;;;;27.84;55.88;100490.36;106460;1253;72693;-76
2023/08/15 06:39:47;;;;;;;8.30;6.70;;;;;;;27.90;55.62;100491.11;106970;1252;60539;-79
2023/08/15 06:42:14;;;;;;;8.90;7.70;;;;;;;27.96;55.58;100492.36;107115;1251;60363;-75
2023/08/15 06:44:43;;;;;;;9.10;7.80;;;;;;;28.04;55.53;100490.27;107095;1251;72599;-80
2023/08/15 06:47:10;;;;;;;10.60;8.30;;;;;;;28.11;55.50;100492.15;107731;1251;70174;-79
2023/08/15 06:49:38;;;;;;;11.30;8.00;;;;;;;28.18;55.10;100491.09;107999;1253;71428;-80
2023/08/15 06:52:07;;;;;;;11.60;7.70;;;;;;;28.25;54.85;100490.23;106776;1257;60295;-78
2023/08/15 06:54:36;;;;;;;8.50;7.60;;;;;;;28.33;54.79;100492.56;107020;1251;60342;-78
2023/08/15 06:57:07;;;;;;;12.20;7.90;;;;;;;28.40;54.39;100491.39;108026;1250;75966;-77
2023/08/15 06:59:35;;;;;;;8.90;7.20;;;;;;;28.46;53.77;100491.89;107663;1251;68999;-79
2023/08/15 07:02:05;;;;;;;9.20;7.80;;;;;;;28.53;53.44;100491.77;106492;1250;72685;-78
2023/08/15 07:04:33;;;;;;;9.30;7.60;;;;;;;28.58;53.55;100493.82;106396;1253;60506;-79
2023/08/15 07:07:00;;;;;;;10.40;6.90;;;;;;;28.65;53.63;100493.94;106269;1251;60510;-79
2023/08/15 07:09:29;;;;;;;8.80;7.90;;;;;;;28.71;53.10;100494.60;106343;1251;73926;-78
2023/08/15 07:11:56;;;;;;;11.90;7.70;;;;;;;28.76;53.21;100491.55;106493;1251;72670;-79
2023/08/15 07:14:24;;;;;;;11.50;7.00;;;;;;;28.83;53.06;100494.08;106464;1254;73453;-79
2023/08/15 07:16:51;;;;;;;8.50;6.50;;;;;;;28.89;52.47;100489.98;106586;1251;61100;-79
2023/08/15 07:19:19;;;;;;;8.90;6.30;;;;;;;28.91;52.03;100495.07;106369;1257;60479;-80
2023/08/15 07:21:46;;;;;;;7.00;6.10;;;;;;;28.94;52.02;100497.26;106297;1251;72558;-79
2023/08/15 07:24:14;;;;;;;7.80;6.20;;;;;;;28.98;51.57;100497.43;106107;1256;68886;-80
2023/08/15 07:26:41;;;;;;;13.50;7.00;;;;;;;29.03;51.40;100501.48;106250;1254;72882;-79
2023/08/15 07:29:09;;;;;;;8.20;5.70;;;;;;;29.08;51.28;100500.94;106307;1254;61024;-78
2023/08/15 07:31:36;;;;;;;9.00;6.70;;;;;;;29.12;51.30;100501.05;106293;1251;60958;-78
2023/08/15 07:34:04;;;;;;;9.00;6.20;;;;;;;29.16;51.22;100501.02;106397;1251;73794;-79
2023/08/15 07:36:31;;;;;;;7.40;5.00;;;;;;;29.21;50.48;100502.55;107026;1251;70110;-78
2023/08/15 07:38:59;;;;;;;7.60;5.70;;;;;;;29.25;50.43;100504.30;106770;1251;71663;-79
2023/08/15 07:41:27;;;;;;;6.50;5.30;;;;;;;29.32;50.14;100503.80;106411;1251;60568;-78
2023/08/15 07:43:54;;;;;;;6.50;5.10;;;;;;;29.37;49.85;100501.05;106272;1256;60417;-79
2023/08/15 07:46:21;;;;;;;7.10;5.10;;;;;;;29.43;49.85;100504.89;106250;1251;72905;-78
2023/08/15 07:48:50;;;;;;;5.40;4.90;;;;;;;29.51;49.50;100508.54;106192;1251;68749;-79
2023/08/15 07:51:18;;;;;;;6.10;5.00;;;;;;;29.59;49.07;100509.08;106139;1254;75625;-80
2023/08/15 07:53:45;;;;;;;5.30;4.80;;;;;;;29.68;48.21;100506.05;106100;1253;60463;-79
2023/08/15 07:56:12;;;;;;;9.00;4.70;;;;;;;29.70;48.03;100504.45;106433;1256;60355;-79
2023/08/15 07:58:40;;;;;;;6.10;5.20;;;;;;;29.75;48.31;100506.07;106734;1251;75829;-78
2023/08/15 08:01:08;;;;;;;5.20;4.70;;;;;;;29.83;48.59;100505.88;106955;1251;68553;-78
2023/08/15 08:03:38;;;;;;;5.70;5.20;;;;;;;29.91;48.27;100503.78;107312;1256;71190;-80
2023/08/15 08:06:06;;;;;;;6.20;5.50;;;;;;;30.01;48.14;100501.83;107813;1251;60520;-76
2023/08/15 08:08:47;;;;;;;6.20;5.50;;;;;;;30.11;47.68;100502.08;106867;1251;60661;-76
2023/08/15 08:11:15;;;;;;;8.30;5.50;;;;;;;30.14;47.79;100500.52;106254;1256;73845;-78
2023/08/15 08:13:42;;;;;;;7.90;5.80;;;;;;;30.20;47.82;100503.66;106611;1250;70306;-78
2023/08/15 08:16:10;;;;;;;7.70;5.30;;;;;;;30.27;47.65;100505.72;106737;1253;72731;-78
2023/08/15 08:18:37;;;;;;;7.50;5.50;;;;;;;30.36;47.69;100504.44;106860;1252;60561;-76
2023/08/15 08:21:06;;;;;;;6.40;5.10;;;;;;;30.45;47.57;100500.52;106277;1257;61074;-79
2023/08/15 08:23:33;;;;;;;8.90;5.00;;;;;;;30.56;47.21;100501.32;106244;1256;75588;-78
2023/08/15 08:26:01;;;;;;;5.50;4.90;;;;;;;30.68;46.90;100503.17;105920;1257;72192;-78
2023/08/15 08:28:29;;;;;;;5.30;4.80;;;;;;;30.81;46.57;100504.61;106138;1256;72732;-78
2023/08/15 08:30:58;;;;;;;5.80;4.80;;;;;;;30.93;46.40;100506.20;106077;1251;60436;-78
2023/08/15 08:33:26;;;;;;;6.50;4.80;;;;;;;31.05;46.02;100502.16;106328;1256;59597;-76
2023/08/15 08:35:53;;;;;;;6.20;5.00;;;;;;;31.16;45.69;100500.16;106582;1251;73824;-78
2023/08/15 08:38:21;;;;;;;5.70;4.60;;;;;;;31.29;45.30;100502.23;106239;1252;69999;-78
2023/08/15 08:40:53;;;;;;;5.90;4.50;;;;;;;31.44;44.87;100501.13;106570;1256;71362;-76
2023/08/15 08:43:21;;;;;;;10.20;4.70;;;;;;;31.58;44.38;100505.94;107655;1251;60475;-79
2023/08/15 08:45:49;;;;;;;5.70;4.60;;;;;;;31.74;43.97;100503.35;106966;1251;60482;-78
2023/08/15 08:48:17;;;;;;;7.40;4.60;;;;;;;31.87;43.52;100499.80;105982;1251;73859;-78
2023/08/15 08:50:44;;;;;;;10.80;4.80;;;;;;;31.99;43.56;100500.88;105898;1251;69968;-78
2023/08/15 08:53:12;;;;;;;6.60;4.70;;;;;;;32.10;42.85;100494.45;105666;1256;72472;-79
2023/08/15 08:55:40;;;;;;;5.00;4.50;;;;;;;32.20;42.91;100495.48;106412;1251;60431;-77
2023/08/15 08:58:09;;;;;;;4.60;4.20;;;;;;;32.35;42.75;100494.13;107016;1251;60566;-77
2023/08/15 09:00:39;;;;;;;6.80;4.50;;;;;;;32.53;42.87;100485.91;106947;1251;73104;-79
2023/08/15 09:03:07;;;;;;;5.30;4.80;;;;;;;32.74;42.65;100484.79;107264;1251;68864;-78
2023/08/15 09:05:34;;;;;;;5.30;4.60;;;;;;;32.97;41.92;100480.02;107121;1254;72437;-78
2023/08/15 09:08:02;;;;;;;4.60;4.20;;;;;;;33.20;41.26;100475.75;106572;1253;60309;-79
2023/08/15 09:10:29;;;;;;;5.20;4.50;;;;;;;33.45;41.47;100474.27;106386;1252;60464;-80
2023/08/15 09:12:58;;;;;;;6.20;4.50;;;;;;;33.74;41.00;100477.64;106221;1251;74274;-79
2023/08/15 09:15:26;;;;;;;5.40;4.40;;;;;;;34.07;39.95;100473.61;106296;1251;69988;-79
2023/08/15 09:17:59;;;;;;;5.30;4.70;;;;;;;34.42;39.47;100475.80;106548;1257;63832;-80
2023/08/15 09:20:28;;;;;;;4.90;4.40;;;;;;;34.81;38.92;100476.56;108512;1251;60625;-80
2023/08/15 09:22:57;;;;;;;6.10;4.00;;;;;;;35.24;37.88;100475.17;108043;1251;60383;-79
2023/08/15 09:25:26;;;;;;;6.30;4.00;;;;;;;35.65;37.23;100478.45;107614;1257;65715;-78
2023/08/15 09:27:54;;;;;;;5.20;3.90;;;;;;;36.10;36.33;100473.91;106307;1251;61356;-80
2023/08/15 09:30:22;;;;;;;6.60;4.30;;;;;;;36.50;35.85;100473.55;106235;1254;63703;-77
2023/08/15 09:32:49;;;;;;;4.90;3.80;;;;;;;37.05;35.63;100467.67;106286;1251;60441;-79
2023/08/15 09:35:17;;;;;;;6.10;4.50;;;;;;;37.71;35.09;100467.21;106334;1251;60492;-79
2023/08/15 09:37:49;;;;;;;4.60;4.20;;;;;;;38.40;33.90;100457.24;107837;1251;72923;-79
2023/08/15 09:40:22;;;;;;;4.40;4.00;;;;;;;38.87;33.33;100455.57;106877;1252;61338;-78
2023/08/15 09:42:54;;;;;;;7.10;4.80;;;;;;;39.29;32.65;100453.14;106282;1257;74670;-78
2023/08/15 09:45:22;;;;;;;7.20;4.60;;;;;;;39.39;32.41;100452.20;106129;1251;60469;-81
2023/08/15 09:47:49;;;;;;;7.00;3.90;;;;;;;39.42;32.25;100450.83;106112;1251;60490;-80
2023/08/15 09:50:17;;;;;;;6.20;4.10;;;;;;;39.61;32.60;100450.96;106109;1252;63976;-79
2023/08/15 09:52:45;;;;;;;5.30;4.10;;;;;;;40.01;32.32;100455.09;106275;1251;60556;-78
2023/08/15 09:55:17;;;;;;;4.70;3.90;;;;;;;40.50;31.10;100449.20;106208;1256;65011;-78
2023/08/15 09:57:45;;;;;;;7.90;4.70;;;;;;;40.82;30.92;100447.80;105981;1259;62503;-79
2023/08/15 10:00:13;;;;;;;5.40;4.30;;;;;;;41.21;30.62;100445.88;106264;1251;60331;-78
2023/08/15 10:02:46;;;;;;;5.30;4.50;;;;;;;41.70;30.21;100442.98;106481;1251;63627;-80
2023/08/15 10:05:13;;;;;;;6.70;4.70;;;;;;;42.22;29.53;100441.93;106855;1251;61414;-78
2023/08/15 10:07:42;;;;;;;5.30;4.70;;;;;;;42.67;29.02;100440.95;106803;1257;63738;-76
2023/08/15 10:10:09;;;;;;;4.30;3.80;;;;;;;43.05;28.68;100433.22;106101;1251;60453;-78
2023/08/15 10:12:38;;;;;;;5.20;4.10;;;;;;;43.41;28.28;100430.00;106207;1257;60393;-79
2023/08/15 10:15:07;;;;;;;6.30;4.30;;;;;;;43.58;27.96;100430.67;106255;1255;64963;-78
2023/08/15 10:17:35;;;;;;;4.60;4.20;;;;;;;43.66;27.96;100424.16;106941;1257;60443;-78
2023/08/15 10:20:05;;;;;;;6.80;4.60;;;;;;;43.84;27.60;100425.16;107078;1254;62452;-78
2023/08/15 10:22:34;;;;;;;4.50;3.90;;;;;;;44.05;27.39;100426.73;106433;1254;60520;-77
2023/08/15 10:25:31;;;;;;;5.10;4.60;;;;;;;44.33;27.03;100428.71;106252;1251;60424;-79
2023/08/15 10:27:58;;;;;;;4.30;3.90;;;;;;;44.68;26.61;100425.75;106130;1257;64977;-78
2023/08/15 10:30:45;;;;;;;6.90;4.40;;;;;;;44.97;26.38;100418.70;106225;1251;61466;-79
2023/08/15 10:33:20;;;;;;;6.60;4.70;;;;;;;45.30;25.88;100417.63;106354;1257;62689;-81
2023/08/15 10:35:52;;;;;;;6.30;4.60;;;;;;;45.57;25.77;100418.97;106786;1250;60418;-79
2023/08/15 10:38:26;;;;;;;5.40;4.40;;;;;;;45.75;25.23;100417.80;107909;1251;60297;-77
2023/08/15 10:41:02;;;;;;;5.20;4.70;;;;;;;45.65;25.08;100416.44;108276;1250;65734;-78
2023/08/15 10:43:29;;;;;;;4.80;4.40;;;;;;;45.45;24.91;100421.67;107834;1251;62772;-80
2023/08/15 10:46:00;;;;;;;7.30;4.80;;;;;;;45.05;24.77;100418.92;106215;1257;62603;-77
2023/08/15 10:48:54;;;;;;;4.90;4.40;;;;;;;44.67;25.37;100419.17;106300;1253;60495;-79
2023/08/15 10:51:35;;;;;;;5.40;4.30;;;;;;;44.76;25.32;100419.27;106909;1250;60409;-80
2023/08/15 10:54:07;;;;;;;4.90;4.50;;;;;;;44.83;25.09;100413.83;108036;1251;67696;-77
2023/08/15 10:56:36;;;;;;;5.00;4.60;;;;;;;44.86;25.23;100413.77;108335;1251;60102;-77
2023/08/15 10:59:12;;;;;;;5.00;4.60;;;;;;;44.86;24.61;100411.70;108267;1256;62528;-79
2023/08/15 11:01:41;;;;;;;6.40;4.60;;;;;;;44.68;24.76;100410.55;107978;1251;59227;-79
2023/08/15 11:04:13;;;;;;;5.30;4.60;;;;;;;44.57;25.37;100411.79;106659;1250;60287;-80
2023/08/15 11:06:47;;;;;;;5.10;4.40;;;;;;;44.74;25.85;100409.25;106693;1257;64929;-81
2023/08/15 11:09:15;;;;;;;5.60;5.00;;;;;;;45.23;25.52;100408.02;106614;1256;61546;-78
2023/08/15 11:11:44;;;;;;;5.20;4.50;;;;;;;45.76;25.42;100397.83;106330;1254;64175;-79
2023/08/15 11:14:16;;;;;;;7.10;5.50;;;;;;;46.27;24.87;100392.70;106349;1251;60539;-80
2023/08/15 11:16:45;;;;;;;5.50;4.90;;;;;;;46.56;24.55;100392.48;106178;1251;60351;-81
2023/08/15 11:19:17;;;;;;;6.60;5.00;;;;;;;46.72;24.35;100386.48;106162;1257;65115;-79
2023/08/15 11:21:46;;;;;;;6.80;5.30;;;;;;;46.95;24.24;100381.23;106302;1259;63918;-79